createdAt,value
2022-09-30T00:01:52.576Z,4.45
2022-09-30T00:04:21.202Z,3.30
2022-09-30T00:06:48.184Z,3.92
2022-09-30T00:09:14.561Z,4.05
2022-09-30T00:11:41.863Z,2.90
2022-09-30T00:14:12.983Z,3.30
2022-09-30T00:16:38.776Z,2.85
2022-09-30T00:19:05.439Z,2.85
2022-09-30T00:21:35.244Z,4.03
2022-09-30T00:24:02.219Z,2.47
2022-09-30T00:26:28.590Z,3.95
2022-09-30T00:28:57.036Z,6.10
2022-09-30T00:31:24.901Z,2.10
2022-09-30T00:34:06.521Z,3.00
2022-09-30T00:36:33.444Z,3.78
2022-09-30T00:38:59.278Z,4.88
2022-09-30T00:41:25.891Z,4.38
2022-09-30T00:43:52.833Z,3.70
2022-09-30T00:46:33.991Z,2.28
2022-09-30T00:49:17.625Z,4.53
2022-09-30T00:51:51.589Z,4.50
2022-09-30T00:54:22.089Z,3.08
2022-09-30T00:56:55.034Z,2.42
2022-09-30T00:59:23.529Z,2.22
2022-09-30T01:01:49.427Z,2.22
2022-09-30T01:04:20.002Z,2.83
2022-09-30T01:06:46.301Z,2.58
2022-09-30T01:09:12.487Z,5.93
2022-09-30T01:11:38.642Z,2.05
2022-09-30T01:14:12.589Z,2.45
2022-09-30T01:16:41.079Z,4.43
2022-09-30T01:19:28.527Z,4.40
2022-09-30T01:21:54.227Z,5.20
2022-09-30T01:24:47.347Z,3.28
2022-09-30T01:27:29.778Z,2.03
2022-09-30T01:30:10.539Z,3.35
2022-09-30T01:32:54.327Z,1.90
2022-09-30T01:35:41.469Z,2.13
2022-09-30T01:38:48.673Z,5.22
2022-09-30T01:41:43.786Z,5.38
2022-09-30T01:44:29.663Z,3.65
2022-09-30T01:47:13.868Z,3.25
2022-09-30T01:49:39.701Z,4.43
2022-09-30T01:52:20.694Z,2.28
2022-09-30T01:55:02.271Z,5.60
2022-09-30T01:57:41.952Z,3.28
2022-09-30T02:00:10.053Z,2.22
2022-09-30T02:03:09.007Z,2.28
2022-09-30T02:05:50.377Z,2.53
2022-09-30T02:08:31.253Z,3.92
2022-09-30T02:11:06.326Z,3.72
2022-09-30T02:13:58.653Z,2.00
2022-09-30T02:16:32.031Z,3.78
2022-09-30T02:19:14.216Z,3.92
2022-09-30T02:21:42.912Z,3.08
2022-09-30T02:24:14.058Z,3.15
2022-09-30T02:26:43.330Z,4.47
2022-09-30T02:29:28.256Z,4.07
2022-09-30T02:32:00.156Z,2.53
2022-09-30T02:34:34.441Z,3.80
2022-09-30T02:37:16.256Z,2.78
2022-09-30T02:39:52.853Z,6.15
2022-09-30T02:42:26.766Z,2.42
2022-09-30T02:44:55.908Z,6.43
2022-09-30T02:47:42.897Z,5.45
2022-09-30T02:50:22.169Z,5.00
2022-09-30T02:53:18.170Z,4.20
2022-09-30T02:56:14.378Z,4.93
2022-09-30T02:58:42.552Z,4.78
2022-09-30T03:01:11.700Z,6.18
2022-09-30T03:03:40.292Z,4.22
2022-09-30T03:06:06.320Z,3.85
2022-09-30T03:08:32.578Z,4.85
2022-09-30T03:10:58.472Z,6.65
2022-09-30T03:13:50.352Z,6.93
2022-09-30T03:16:33.529Z,9.10
2022-09-30T03:19:30.721Z,6.13
2022-09-30T03:22:15.095Z,6.32
2022-09-30T03:24:40.775Z,3.80
2022-09-30T03:27:18.222Z,11.80
2022-09-30T03:29:46.996Z,4.63
2022-09-30T03:32:35.498Z,7.88
2022-09-30T03:35:25.903Z,6.35
2022-09-30T03:38:10.151Z,6.25
2022-09-30T03:41:13.272Z,4.60
2022-09-30T03:43:48.558Z,6.85
2022-09-30T03:46:31.775Z,6.95
2022-09-30T03:49:02.290Z,5.07
2022-09-30T03:51:29.232Z,6.18
2022-09-30T03:53:57.318Z,7.03
2022-09-30T03:56:28.870Z,7.20
2022-09-30T03:58:56.635Z,6.63
2022-09-30T04:01:23.397Z,7.65
2022-09-30T04:03:53.047Z,8.02
2022-09-30T04:06:21.591Z,6.97
2022-09-30T04:08:47.898Z,8.68
2022-09-30T04:11:14.232Z,10.00
2022-09-30T04:13:40.013Z,5.55
2022-09-30T04:16:07.427Z,9.23
2022-09-30T04:18:37.586Z,6.88
2022-09-30T04:21:08.266Z,7.75
2022-09-30T04:23:39.427Z,7.50
2022-09-30T04:26:12.886Z,9.32
2022-09-30T04:28:39.085Z,9.85
2022-09-30T04:31:05.758Z,12.55
2022-09-30T04:33:32.194Z,9.10
2022-09-30T04:35:59.656Z,8.07
2022-09-30T04:38:26.833Z,13.00
2022-09-30T04:40:56.378Z,9.95
2022-09-30T04:43:23.894Z,11.35
2022-09-30T04:45:51.930Z,12.75
2022-09-30T04:48:18.390Z,16.83
2022-09-30T04:50:44.425Z,10.25
2022-09-30T04:53:12.979Z,8.70
2022-09-30T04:55:38.717Z,12.70
2022-09-30T04:58:04.543Z,8.63
2022-09-30T05:00:30.343Z,13.18
2022-09-30T05:02:56.985Z,16.10
2022-09-30T05:05:23.202Z,12.68
2022-09-30T05:07:49.013Z,10.48
2022-09-30T05:10:15.740Z,12.43
2022-09-30T05:12:41.583Z,8.93
2022-09-30T05:15:08.010Z,10.70
2022-09-30T05:17:34.305Z,11.20
2022-09-30T05:20:00.761Z,10.75
2022-09-30T05:22:27.683Z,10.75
2022-09-30T05:24:55.408Z,14.05
2022-09-30T05:27:25.186Z,11.98
2022-09-30T05:29:50.979Z,15.45
2022-09-30T05:32:17.496Z,13.45
2022-09-30T05:34:43.258Z,12.57
2022-09-30T05:37:09.032Z,10.48
2022-09-30T05:39:35.952Z,12.90
2022-09-30T05:42:01.827Z,13.40
2022-09-30T05:44:27.605Z,13.85
2022-09-30T05:46:53.409Z,12.50
2022-09-30T05:49:19.321Z,11.02
2022-09-30T05:51:45.110Z,10.60
2022-09-30T05:54:11.160Z,9.95
2022-09-30T05:56:39.981Z,13.45
2022-09-30T05:59:06.551Z,11.15
2022-09-30T06:01:33.094Z,9.50
2022-09-30T06:03:59.406Z,12.85
2022-09-30T06:06:25.710Z,12.13
2022-09-30T06:08:51.851Z,10.32
2022-09-30T06:11:20.252Z,14.55
2022-09-30T06:13:47.137Z,10.35
2022-09-30T06:16:14.106Z,9.00
2022-09-30T06:18:40.760Z,15.60
2022-09-30T06:21:08.132Z,10.55
2022-09-30T06:23:34.792Z,10.70
2022-09-30T06:26:02.006Z,12.60
2022-09-30T06:28:27.881Z,12.02
2022-09-30T06:30:53.903Z,11.18
2022-09-30T06:33:21.250Z,13.57
2022-09-30T06:35:47.715Z,14.48
2022-09-30T06:38:17.274Z,12.45
2022-09-30T06:40:44.297Z,13.55
2022-09-30T06:43:10.962Z,12.73
2022-09-30T06:45:37.000Z,14.15
2022-09-30T06:48:04.898Z,13.30
2022-09-30T06:50:31.618Z,15.63
2022-09-30T06:53:02.968Z,14.05
2022-09-30T06:55:29.594Z,13.10
2022-09-30T06:57:56.469Z,12.63
2022-09-30T07:00:23.525Z,12.98
2022-09-30T07:02:49.530Z,16.42
2022-09-30T07:05:16.039Z,14.10
2022-09-30T07:07:43.038Z,20.40
2022-09-30T07:10:09.567Z,16.33
2022-09-30T07:12:35.441Z,14.93
2022-09-30T07:15:01.459Z,10.90
2022-09-30T07:17:28.578Z,13.80
2022-09-30T07:19:54.792Z,13.98
2022-09-30T07:22:27.700Z,12.25
2022-09-30T07:24:54.548Z,10.35
2022-09-30T07:27:20.765Z,10.55
2022-09-30T07:32:32.929Z,9.02
2022-09-30T07:34:58.707Z,11.00
2022-09-30T07:37:25.578Z,7.10
2022-09-30T07:39:51.976Z,7.32
2022-09-30T07:42:22.741Z,10.55
2022-09-30T07:44:52.403Z,10.35
2022-09-30T07:47:19.156Z,8.95
2022-09-30T07:49:45.360Z,9.20
2022-09-30T07:52:12.054Z,7.60
2022-09-30T07:54:42.486Z,7.13
2022-09-30T07:57:11.252Z,9.30
2022-09-30T07:59:40.122Z,7.47
2022-09-30T08:02:10.237Z,9.77
2022-09-30T08:04:39.167Z,7.88
2022-09-30T08:07:07.877Z,7.13
2022-09-30T08:09:34.282Z,7.72
2022-09-30T08:12:03.301Z,6.55
2022-09-30T08:14:29.064Z,6.93
2022-09-30T08:16:57.557Z,7.13
2022-09-30T08:19:24.621Z,7.47
2022-09-30T08:21:53.239Z,10.18
2022-09-30T08:24:19.490Z,10.20
2022-09-30T08:26:45.347Z,8.38
2022-09-30T08:29:20.130Z,17.98
2022-09-30T08:34:12.846Z,8.35
2022-09-30T08:36:39.312Z,7.38
2022-09-30T08:39:05.284Z,8.43
2022-09-30T08:41:46.051Z,7.90
2022-09-30T08:44:29.749Z,10.07
2022-09-30T08:47:12.975Z,11.00
2022-09-30T08:49:58.134Z,10.07
2022-09-30T08:52:47.939Z,10.67
2022-09-30T08:55:22.474Z,6.82
2022-09-30T08:57:49.585Z,8.18
2022-09-30T09:00:17.503Z,6.18
2022-09-30T09:02:48.504Z,8.18
2022-09-30T09:05:31.886Z,8.60
2022-09-30T09:08:08.037Z,14.18
2022-09-30T09:10:50.444Z,6.90
2022-09-30T09:13:35.554Z,7.22
2022-09-30T09:16:29.316Z,8.33
2022-09-30T09:19:12.545Z,7.45
2022-09-30T09:21:59.133Z,7.97
2022-09-30T09:24:35.303Z,8.07
2022-09-30T09:27:20.996Z,8.05
2022-09-30T09:30:05.926Z,8.38
2022-09-30T09:32:31.746Z,10.85
2022-09-30T09:35:12.433Z,8.98
2022-09-30T09:38:25.871Z,8.00
2022-09-30T09:41:26.124Z,7.63
2022-09-30T09:44:18.006Z,7.85
2022-09-30T09:46:47.950Z,6.60
2022-09-30T09:49:16.306Z,8.48
2022-09-30T09:51:57.911Z,10.15
2022-09-30T09:54:30.389Z,6.90
2022-09-30T09:57:06.569Z,5.30
2022-09-30T09:59:32.634Z,9.32
2022-09-30T10:01:59.571Z,6.30
2022-09-30T10:04:29.098Z,5.38
2022-09-30T10:07:13.525Z,5.15
2022-09-30T10:09:42.326Z,7.50
2022-09-30T10:12:08.027Z,5.57
2022-09-30T10:15:00.980Z,6.35
2022-09-30T10:17:36.460Z,7.50
2022-09-30T10:20:31.538Z,5.80
2022-09-30T10:23:30.931Z,8.00
2022-09-30T10:25:58.357Z,5.45
2022-09-30T10:28:28.202Z,8.82
2022-09-30T10:30:56.506Z,4.95
2022-09-30T10:33:30.011Z,6.50
2022-09-30T10:36:05.543Z,5.15
2022-09-30T10:38:34.008Z,6.80
2022-09-30T10:41:01.469Z,7.70
2022-09-30T10:43:33.410Z,5.10
2022-09-30T10:46:24.564Z,5.40
2022-09-30T10:48:53.023Z,7.05
2022-09-30T10:51:30.009Z,10.75
2022-09-30T10:53:56.545Z,7.10
2022-09-30T10:56:37.126Z,8.25
2022-09-30T10:59:04.929Z,3.58
2022-09-30T11:01:37.754Z,4.53
2022-09-30T11:04:09.414Z,6.43
2022-09-30T11:06:38.919Z,5.80
2022-09-30T11:09:18.704Z,5.70
2022-09-30T11:11:58.484Z,3.42
2022-09-30T11:14:50.763Z,3.33
2022-09-30T11:17:26.754Z,4.10
2022-09-30T11:20:08.771Z,3.78
2022-09-30T11:22:59.142Z,3.42
2022-09-30T11:25:37.787Z,9.27
2022-09-30T11:28:28.132Z,3.70
2022-09-30T11:31:08.965Z,5.65
2022-09-30T11:33:49.618Z,4.88
2022-09-30T11:36:29.885Z,3.72
2022-09-30T11:39:19.656Z,3.15
2022-09-30T11:41:57.881Z,4.43
2022-09-30T11:44:34.444Z,5.22
2022-09-30T11:47:29.856Z,6.10
2022-09-30T11:50:06.999Z,3.20
2022-09-30T11:52:53.482Z,2.97
2022-09-30T11:55:40.390Z,2.90
2022-09-30T11:58:39.758Z,4.45
2022-09-30T12:01:44.911Z,2.30
2022-09-30T12:04:19.307Z,3.97
2022-09-30T12:06:50.991Z,6.87
2022-09-30T12:09:56.930Z,1.95
2022-09-30T12:12:23.202Z,4.80
2022-09-30T12:14:48.986Z,3.53
2022-09-30T12:17:49.079Z,2.78
2022-09-30T12:20:17.524Z,2.58
2022-09-30T12:22:47.374Z,2.78
2022-09-30T12:25:25.046Z,5.38
2022-09-30T12:28:28.044Z,2.80
2022-09-30T12:31:10.504Z,2.45
2022-09-30T12:34:17.448Z,2.75
2022-09-30T12:37:13.905Z,1.55
2022-09-30T12:39:49.503Z,3.30
2022-09-30T12:42:33.244Z,4.03
2022-09-30T12:45:32.733Z,2.00
2022-09-30T12:48:03.019Z,1.40
2022-09-30T12:50:35.194Z,1.45
2022-09-30T12:53:21.738Z,1.52
2022-09-30T12:55:48.255Z,2.60
2022-09-30T12:58:30.889Z,1.30
2022-09-30T13:01:12.986Z,1.08
2022-09-30T13:04:08.621Z,1.15
2022-09-30T13:06:46.542Z,1.60
2022-09-30T13:09:29.723Z,3.13
2022-09-30T13:11:55.959Z,2.22
2022-09-30T13:14:44.187Z,2.53
2022-09-30T13:17:09.900Z,1.63
2022-09-30T13:19:43.807Z,3.78
2022-09-30T13:22:28.577Z,1.73
2022-09-30T13:24:57.394Z,1.45
2022-09-30T13:27:45.364Z,1.23
2022-09-30T13:30:13.953Z,3.15
2022-09-30T13:32:42.687Z,2.33
2022-09-30T13:35:34.399Z,2.60
2022-09-30T13:38:12.310Z,1.73
2022-09-30T13:41:02.390Z,2.17
2022-09-30T13:43:34.959Z,5.78
2022-09-30T13:46:19.728Z,2.45
2022-09-30T13:49:29.709Z,1.77
2022-09-30T13:51:55.821Z,1.27
2022-09-30T13:54:33.347Z,1.63
2022-09-30T13:57:05.664Z,1.00
2022-09-30T14:00:10.754Z,1.75
2022-09-30T14:03:05.491Z,2.58
2022-09-30T14:05:56.384Z,1.50
2022-09-30T14:08:56.839Z,2.53
2022-09-30T14:11:42.124Z,2.45
2022-09-30T14:14:07.811Z,1.15
2022-09-30T14:16:51.914Z,1.00
2022-09-30T14:19:24.402Z,1.48
2022-09-30T14:22:10.939Z,1.65
2022-09-30T14:24:39.493Z,1.83
2022-09-30T14:27:17.738Z,2.17
2022-09-30T14:29:52.524Z,2.88
2022-09-30T14:32:30.231Z,1.58
2022-09-30T14:34:58.065Z,3.22
2022-09-30T14:37:30.128Z,4.68
2022-09-30T14:39:56.338Z,3.53
2022-09-30T14:42:35.367Z,2.45
2022-09-30T14:45:04.660Z,2.40
2022-09-30T14:47:43.376Z,2.20
2022-09-30T14:50:15.533Z,0.93
2022-09-30T14:52:45.708Z,3.92
2022-09-30T14:55:31.433Z,2.15
2022-09-30T15:01:06.203Z,2.88
2022-09-30T15:03:39.122Z,2.60
2022-09-30T15:06:15.422Z,2.30
2022-09-30T15:08:41.349Z,1.75
2022-09-30T15:11:07.267Z,2.97
2022-09-30T15:13:34.041Z,2.90
2022-09-30T15:16:00.195Z,2.45
2022-09-30T15:18:42.302Z,2.00
2022-09-30T15:21:14.665Z,2.15
2022-09-30T15:23:51.567Z,1.38
2022-09-30T15:26:20.047Z,3.55
2022-09-30T15:28:47.203Z,2.50
2022-09-30T15:31:30.296Z,1.85
2022-09-30T15:34:13.551Z,4.72
2022-09-30T15:36:40.722Z,3.25
2022-09-30T15:39:47.492Z,4.13
2022-09-30T15:42:26.875Z,4.25
2022-09-30T15:44:52.639Z,2.08
2022-09-30T15:47:18.594Z,2.80
2022-09-30T15:49:49.039Z,1.23
2022-09-30T15:52:38.924Z,3.15
2022-09-30T15:55:34.753Z,2.42
2022-09-30T15:58:01.968Z,4.22
2022-09-30T16:00:34.498Z,1.33
2022-09-30T16:03:29.289Z,3.53
2022-09-30T16:06:10.397Z,4.25
2022-09-30T16:08:46.079Z,1.92
2022-09-30T16:11:25.744Z,3.60
2022-09-30T16:13:52.196Z,1.60
2022-09-30T16:16:20.991Z,2.33
2022-09-30T16:18:48.016Z,3.42
2022-09-30T16:21:44.534Z,5.70
2022-09-30T16:24:33.393Z,4.43
2022-09-30T16:27:19.676Z,3.28
2022-09-30T16:29:45.970Z,3.55
2022-09-30T16:32:13.199Z,2.13
2022-09-30T16:34:39.356Z,2.22
2022-09-30T16:37:14.159Z,3.38
2022-09-30T16:39:40.476Z,3.22
2022-09-30T16:42:11.523Z,2.70
2022-09-30T16:44:37.297Z,3.03
2022-09-30T16:47:03.791Z,2.22
2022-09-30T16:49:29.677Z,2.13
2022-09-30T16:51:55.942Z,2.08
2022-09-30T16:54:21.886Z,4.00
2022-09-30T16:56:48.722Z,3.38
2022-09-30T16:59:17.004Z,5.55
2022-09-30T17:01:43.379Z,4.70
2022-09-30T17:04:12.991Z,2.83
2022-09-30T17:06:41.199Z,3.15
2022-09-30T17:09:06.977Z,5.75
2022-09-30T17:11:34.997Z,3.30
2022-09-30T17:14:02.301Z,2.90
2022-09-30T17:16:28.487Z,2.38
2022-09-30T17:18:54.839Z,9.43
2022-09-30T17:21:23.669Z,6.00
2022-09-30T17:23:50.334Z,5.35
2022-09-30T17:26:16.615Z,6.07
2022-09-30T17:28:42.468Z,2.55
2022-09-30T17:31:08.664Z,3.95
2022-09-30T17:33:39.400Z,2.13
2022-09-30T17:36:10.878Z,4.03
2022-09-30T17:38:38.020Z,5.03
2022-09-30T17:41:23.653Z,6.97
2022-09-30T17:43:50.161Z,3.28
2022-09-30T17:46:20.525Z,4.43
2022-09-30T17:48:46.781Z,4.55
2022-09-30T17:51:15.658Z,5.10
2022-09-30T17:53:42.881Z,2.45
2022-09-30T17:56:18.669Z,3.42
2022-09-30T17:58:47.259Z,7.18
2022-09-30T18:01:15.264Z,5.03
2022-09-30T18:03:41.563Z,3.40
2022-09-30T18:06:08.169Z,3.83
2022-09-30T18:08:34.614Z,3.60
2022-09-30T18:11:00.984Z,2.55
2022-09-30T18:13:27.988Z,1.45
2022-09-30T18:15:55.129Z,1.98
2022-09-30T18:18:21.459Z,3.53
2022-09-30T18:20:49.048Z,2.78
2022-09-30T18:23:18.119Z,6.38
2022-09-30T18:25:48.943Z,2.80
2022-09-30T18:28:16.057Z,5.95
2022-09-30T18:30:43.109Z,2.72
2022-09-30T18:33:10.234Z,5.40
2022-09-30T18:35:38.558Z,3.50
2022-09-30T18:38:05.987Z,3.28
2022-09-30T18:40:33.116Z,3.28
2022-09-30T18:43:02.108Z,3.10
2022-09-30T18:45:29.984Z,2.50
2022-09-30T18:47:59.070Z,2.85
2022-09-30T18:50:27.685Z,3.72
2022-09-30T18:52:54.319Z,2.70
2022-09-30T18:55:20.531Z,2.78
2022-09-30T18:57:49.726Z,3.47
2022-09-30T19:00:17.166Z,3.70
2022-09-30T19:02:46.271Z,3.20
2022-09-30T19:05:13.594Z,5.60
2022-09-30T19:07:39.831Z,4.47
2022-09-30T19:10:11.870Z,2.58
2022-09-30T19:12:39.345Z,3.45
2022-09-30T19:15:09.651Z,2.28
2022-09-30T19:17:36.717Z,4.05
2022-09-30T19:20:04.655Z,3.38
2022-09-30T19:22:30.654Z,2.80
2022-09-30T19:24:56.602Z,3.35
2022-09-30T19:27:25.470Z,3.58
2022-09-30T19:29:54.992Z,1.55
2022-09-30T19:32:23.219Z,1.65
2022-09-30T19:35:04.877Z,3.13
2022-09-30T19:37:32.187Z,7.57
2022-09-30T19:39:58.660Z,3.05
2022-09-30T19:42:27.356Z,2.63
2022-09-30T19:44:53.120Z,2.53
2022-09-30T19:47:18.959Z,3.65
2022-09-30T19:49:44.805Z,6.80
2022-09-30T19:52:18.954Z,4.70
2022-09-30T19:54:48.168Z,3.67
2022-09-30T19:57:13.990Z,3.38
2022-09-30T19:59:39.766Z,4.38
2022-09-30T20:02:05.991Z,2.20
2022-09-30T20:04:33.562Z,2.50
2022-09-30T20:06:59.652Z,2.90
2022-09-30T20:09:25.642Z,1.60
2022-09-30T20:11:51.662Z,3.50
2022-09-30T20:14:35.769Z,4.32
2022-09-30T20:17:01.778Z,3.88
2022-09-30T20:19:28.048Z,3.28
2022-09-30T20:21:53.894Z,4.35
2022-09-30T20:24:20.351Z,2.85
2022-09-30T20:26:46.485Z,5.50
2022-09-30T20:29:12.775Z,3.30
2022-09-30T20:31:41.280Z,2.55
2022-09-30T20:34:10.893Z,2.65
2022-09-30T20:36:38.205Z,3.65
2022-09-30T20:39:05.536Z,3.10
2022-09-30T20:41:36.173Z,4.28
2022-09-30T20:44:11.376Z,6.68
2022-09-30T20:46:38.643Z,4.50
2022-09-30T20:49:04.457Z,3.53
2022-09-30T20:51:31.170Z,2.80
2022-09-30T20:53:58.374Z,1.98
2022-09-30T20:56:26.861Z,3.85
2022-09-30T20:58:52.756Z,4.97
2022-09-30T21:01:20.618Z,5.55
2022-09-30T21:03:51.041Z,3.47
2022-09-30T21:06:28.568Z,3.75
2022-09-30T21:08:55.744Z,3.47
2022-09-30T21:11:22.909Z,6.07
2022-09-30T21:13:51.429Z,3.25
2022-09-30T21:16:20.151Z,5.20
2022-09-30T21:18:46.314Z,3.25
2022-09-30T21:21:15.071Z,4.55
2022-09-30T21:23:41.484Z,4.30
2022-09-30T21:26:13.151Z,5.82
2022-09-30T21:28:39.036Z,3.42
2022-09-30T21:31:15.368Z,3.70
2022-09-30T21:33:42.616Z,5.43
2022-09-30T21:36:09.067Z,2.75
2022-09-30T21:38:34.868Z,3.55
2022-09-30T21:41:03.062Z,3.88
2022-09-30T21:43:30.291Z,6.25
2022-09-30T21:46:00.712Z,3.30
2022-09-30T21:48:27.689Z,4.07
2022-09-30T21:50:54.654Z,6.28
2022-09-30T21:53:20.686Z,2.60
2022-09-30T21:55:48.083Z,4.28
2022-09-30T21:58:14.617Z,5.53
2022-09-30T22:00:42.990Z,5.30
2022-09-30T22:03:10.257Z,4.30
2022-09-30T22:05:36.363Z,3.95
2022-09-30T22:08:04.088Z,6.53
2022-09-30T22:10:29.897Z,4.45
2022-09-30T22:12:55.740Z,3.33
2022-09-30T22:15:21.526Z,4.65
2022-09-30T22:17:50.168Z,6.43
2022-09-30T22:20:16.285Z,5.22
2022-09-30T22:22:42.045Z,3.25
2022-09-30T22:25:08.025Z,2.95
2022-09-30T22:27:34.118Z,3.17
2022-09-30T22:29:59.958Z,4.40
2022-09-30T22:32:27.014Z,5.07
2022-09-30T22:35:11.051Z,3.10
2022-09-30T22:37:55.456Z,4.22
2022-09-30T22:40:21.267Z,2.75
2022-09-30T22:42:48.179Z,5.60
2022-09-30T22:45:14.060Z,4.78
2022-09-30T22:47:40.327Z,4.93
2022-09-30T22:50:06.664Z,7.75
2022-09-30T22:52:32.397Z,4.45
2022-09-30T22:54:58.274Z,4.60
2022-09-30T22:57:24.153Z,4.70
2022-09-30T22:59:52.022Z,5.68
2022-09-30T23:02:21.382Z,4.80
2022-09-30T23:04:47.251Z,5.20
2022-09-30T23:07:13.105Z,4.78
2022-09-30T23:09:38.912Z,8.85
2022-09-30T23:12:04.742Z,4.80
2022-09-30T23:14:30.568Z,7.47
2022-09-30T23:16:56.413Z,5.13
2022-09-30T23:19:22.205Z,3.72
2022-09-30T23:21:48.025Z,4.70
2022-09-30T23:24:14.376Z,5.70
2022-09-30T23:26:40.832Z,5.13
2022-09-30T23:29:10.979Z,5.75
2022-09-30T23:31:37.329Z,3.17
2022-09-30T23:34:03.755Z,4.57
2022-09-30T23:36:32.547Z,3.80
2022-09-30T23:39:17.610Z,3.80
2022-09-30T23:41:45.586Z,5.60
2022-09-30T23:44:12.295Z,2.90
2022-09-30T23:46:58.417Z,5.20
2022-09-30T23:49:24.233Z,5.18
2022-09-30T23:51:50.289Z,4.95
2022-09-30T23:54:16.025Z,3.60
2022-09-30T23:56:43.109Z,6.20
2022-09-30T23:59:09.130Z,3.75
